createdAt,value
2022-12-18T00:01:18.409Z,78.33
2022-12-18T00:03:46.422Z,78.44
2022-12-18T00:06:14.762Z,79.50
2022-12-18T00:08:42.374Z,78.17
2022-12-18T00:11:13.726Z,78.60
2022-12-18T00:13:41.717Z,78.33
2022-12-18T00:16:12.256Z,80.00
2022-12-18T00:18:40.811Z,79.43
2022-12-18T00:21:10.258Z,80.24
2022-12-18T00:23:39.662Z,78.42
2022-12-18T00:26:10.393Z,78.83
2022-12-18T00:28:39.203Z,79.63
2022-12-18T00:31:09.528Z,79.07
2022-12-18T00:33:38.453Z,83.33
2022-12-18T00:36:07.925Z,82.94
2022-12-18T00:38:36.116Z,87.80
2022-12-18T00:41:03.946Z,83.03
2022-12-18T00:43:30.445Z,85.22
2022-12-18T00:45:59.252Z,84.55
2022-12-18T00:48:26.899Z,83.39
2022-12-18T00:50:54.310Z,80.07
2022-12-18T00:53:22.031Z,78.80
2022-12-18T00:55:49.475Z,77.68
2022-12-18T00:58:19.331Z,79.69
2022-12-18T01:00:46.845Z,79.99
2022-12-18T01:03:16.422Z,79.66
2022-12-18T01:05:44.477Z,79.99
2022-12-18T01:08:12.119Z,78.69
2022-12-18T01:10:41.923Z,77.87
2022-12-18T01:13:09.821Z,79.91
2022-12-18T01:15:37.633Z,79.37
2022-12-18T01:18:05.087Z,82.73
2022-12-18T01:20:34.067Z,84.68
2022-12-18T01:23:01.471Z,81.34
2022-12-18T01:25:28.913Z,80.65
2022-12-18T01:27:56.356Z,80.41
2022-12-18T01:30:23.843Z,79.77
2022-12-18T01:32:51.324Z,79.64
2022-12-18T01:35:18.857Z,79.00
2022-12-18T01:37:47.902Z,82.91
2022-12-18T01:40:15.361Z,86.49
2022-12-18T01:42:42.781Z,85.72
2022-12-18T01:45:26.223Z,82.04
2022-12-18T01:47:56.739Z,82.40
2022-12-18T01:50:27.122Z,81.25
2022-12-18T01:52:59.060Z,79.78
2022-12-18T01:55:30.241Z,78.46
2022-12-18T01:58:01.122Z,78.48
2022-12-18T02:00:29.545Z,78.76
2022-12-18T02:02:57.535Z,78.45
2022-12-18T02:05:35.696Z,80.60
2022-12-18T02:08:11.687Z,78.76
2022-12-18T02:10:48.692Z,79.59
2022-12-18T02:13:22.824Z,79.28
2022-12-18T02:15:59.168Z,78.90
2022-12-18T02:18:31.058Z,79.64
2022-12-18T02:21:07.516Z,77.84
2022-12-18T02:23:48.929Z,79.03
2022-12-18T02:26:26.567Z,78.74
2022-12-18T02:28:58.562Z,79.23
2022-12-18T02:31:30.316Z,78.41
2022-12-18T02:34:02.086Z,81.57
2022-12-18T02:36:30.940Z,84.27
2022-12-18T02:39:00.049Z,83.38
2022-12-18T02:41:30.542Z,83.11
2022-12-18T02:43:59.856Z,82.17
2022-12-18T02:46:32.210Z,85.19
2022-12-18T02:49:07.541Z,87.13
2022-12-18T02:51:42.593Z,85.89
2022-12-18T02:54:17.832Z,85.50
2022-12-18T02:56:52.505Z,88.42
2022-12-18T02:59:24.933Z,85.95
2022-12-18T03:01:58.093Z,84.45
2022-12-18T03:04:31.093Z,83.09
2022-12-18T03:07:04.809Z,85.13
2022-12-18T03:09:36.981Z,84.56
2022-12-18T03:12:24.639Z,86.74
2022-12-18T03:14:57.760Z,89.34
2022-12-18T03:17:28.621Z,90.06
2022-12-18T03:20:00.296Z,91.51
2022-12-18T03:22:31.624Z,90.19
2022-12-18T03:25:02.375Z,85.78
2022-12-18T03:27:33.382Z,82.90
2022-12-18T03:30:08.371Z,80.84
2022-12-18T03:32:41.550Z,79.59
2022-12-18T03:35:12.387Z,80.29
2022-12-18T03:37:40.661Z,80.07
2022-12-18T03:40:09.035Z,79.40
2022-12-18T03:42:47.804Z,77.67
2022-12-18T03:45:23.902Z,78.41
2022-12-18T03:48:01.753Z,77.64
2022-12-18T03:50:38.776Z,77.22
2022-12-18T03:53:18.292Z,78.36
2022-12-18T03:55:47.390Z,84.28
2022-12-18T03:58:21.414Z,82.47
2022-12-18T04:00:52.537Z,86.45
2022-12-18T04:03:26.242Z,84.95
2022-12-18T04:05:56.676Z,86.31
2022-12-18T04:08:25.774Z,86.61
2022-12-18T04:10:53.227Z,85.11
2022-12-18T04:13:25.807Z,82.08
2022-12-18T04:15:53.455Z,79.35
2022-12-18T04:18:21.338Z,78.73
2022-12-18T04:20:48.716Z,79.36
2022-12-18T04:23:16.131Z,79.59
2022-12-18T04:25:43.527Z,86.15
2022-12-18T04:28:10.961Z,84.91
2022-12-18T04:30:39.844Z,83.85
2022-12-18T04:33:11.632Z,81.39
2022-12-18T04:35:39.072Z,80.49
2022-12-18T04:38:07.506Z,85.11
2022-12-18T04:40:37.812Z,82.20
2022-12-18T04:43:06.112Z,82.68
2022-12-18T04:45:33.897Z,82.63
2022-12-18T04:48:03.357Z,80.74
2022-12-18T04:50:31.432Z,80.04
2022-12-18T04:52:59.318Z,79.86
2022-12-18T04:55:26.867Z,79.64
2022-12-18T04:57:54.359Z,81.56
2022-12-18T05:00:21.890Z,78.58
2022-12-18T05:02:49.587Z,80.27
2022-12-18T05:05:18.434Z,83.41
2022-12-18T05:07:45.818Z,81.94
2022-12-18T05:10:13.541Z,84.94
2022-12-18T05:12:58.943Z,84.26
2022-12-18T05:15:30.014Z,83.49
2022-12-18T05:17:57.951Z,85.04
2022-12-18T05:20:28.066Z,83.51
2022-12-18T05:22:56.087Z,82.77
2022-12-18T05:25:24.103Z,81.32
2022-12-18T05:27:51.611Z,83.15
2022-12-18T05:30:19.272Z,82.94
2022-12-18T05:32:46.712Z,82.35
2022-12-18T05:35:14.165Z,81.24
2022-12-18T05:37:43.541Z,81.21
2022-12-18T05:40:12.838Z,84.15
2022-12-18T05:42:40.485Z,87.19
2022-12-18T05:45:08.789Z,86.73
2022-12-18T05:47:36.237Z,86.16
2022-12-18T05:50:03.988Z,84.07
2022-12-18T05:52:32.441Z,81.32
2022-12-18T05:55:01.155Z,79.54
2022-12-18T05:57:28.589Z,80.49
2022-12-18T05:59:56.009Z,83.33
2022-12-18T06:02:23.609Z,80.48
2022-12-18T06:04:51.140Z,79.68
2022-12-18T06:07:18.585Z,78.02
2022-12-18T06:09:45.996Z,79.93
2022-12-18T06:12:14.734Z,78.69
2022-12-18T06:14:42.241Z,78.99
2022-12-18T06:17:09.931Z,79.66
2022-12-18T06:19:37.359Z,78.15
2022-12-18T06:22:04.821Z,78.00
2022-12-18T06:24:32.405Z,76.22
2022-12-18T06:26:59.855Z,76.73
2022-12-18T06:29:28.610Z,78.35
2022-12-18T06:31:56.134Z,76.66
2022-12-18T06:34:23.649Z,78.60
2022-12-18T06:36:51.064Z,80.46
2022-12-18T06:39:18.573Z,80.31
2022-12-18T06:41:46.011Z,77.93
2022-12-18T06:44:13.427Z,77.35
2022-12-18T06:46:42.438Z,76.67
2022-12-18T06:49:10.663Z,78.25
2022-12-18T06:51:38.623Z,80.19
2022-12-18T06:54:06.186Z,80.60
2022-12-18T06:56:33.723Z,79.98
2022-12-18T06:59:01.223Z,80.23
2022-12-18T07:01:28.772Z,81.07
2022-12-18T07:03:58.557Z,84.49
2022-12-18T07:06:27.271Z,84.04
2022-12-18T07:08:56.190Z,81.16
2022-12-18T07:11:23.961Z,79.58
2022-12-18T07:13:51.404Z,78.33
2022-12-18T07:16:25.118Z,78.45
2022-12-18T07:18:53.275Z,77.62
2022-12-18T07:21:23.262Z,77.85
2022-12-18T07:23:50.974Z,77.22
2022-12-18T07:26:20.965Z,76.55
2022-12-18T07:28:48.920Z,78.51
2022-12-18T07:31:18.792Z,78.71
2022-12-18T07:33:46.879Z,79.31
2022-12-18T07:36:15.143Z,77.67
2022-12-18T07:38:44.441Z,77.65
2022-12-18T07:41:13.759Z,79.24
2022-12-18T07:43:42.765Z,79.61
2022-12-18T07:46:11.835Z,80.32
2022-12-18T07:48:41.236Z,78.63
2022-12-18T07:51:09.181Z,76.71
2022-12-18T07:53:38.076Z,77.23
2022-12-18T07:58:57.300Z,76.53
2022-12-18T08:01:24.947Z,76.37
2022-12-18T08:03:52.740Z,77.52
2022-12-18T08:06:22.770Z,77.86
2022-12-18T08:08:52.955Z,79.21
2022-12-18T08:11:21.830Z,84.24
2022-12-18T08:13:49.418Z,82.02
2022-12-18T08:16:17.508Z,78.92
2022-12-18T08:18:45.393Z,79.19
2022-12-18T08:21:14.498Z,83.26
2022-12-18T08:23:43.375Z,83.45
2022-12-18T08:26:11.412Z,86.05
2022-12-18T08:28:40.748Z,86.69
2022-12-18T08:31:11.666Z,83.02
2022-12-18T08:33:41.625Z,79.94
2022-12-18T08:36:11.308Z,79.67
2022-12-18T08:38:39.095Z,77.20
2022-12-18T08:41:08.259Z,77.12
2022-12-18T08:43:53.439Z,77.13
2022-12-18T08:46:25.475Z,78.65
2022-12-18T08:48:54.290Z,76.88
2022-12-18T08:51:22.103Z,78.46
2022-12-18T08:53:49.844Z,78.90
2022-12-18T08:56:17.670Z,76.75
2022-12-18T08:58:45.315Z,78.61
2022-12-18T09:01:14.711Z,79.89
2022-12-18T09:03:44.213Z,79.71
2022-12-18T09:06:15.734Z,78.99
2022-12-18T09:08:43.558Z,77.92
2022-12-18T09:11:16.074Z,76.62
2022-12-18T09:13:43.594Z,78.29
2022-12-18T09:16:11.388Z,76.99
2022-12-18T09:18:39.166Z,76.53
2022-12-18T09:21:12.734Z,76.61
2022-12-18T09:23:41.235Z,76.83
2022-12-18T09:26:09.131Z,78.99
2022-12-18T09:28:36.607Z,78.81
2022-12-18T09:31:08.452Z,78.11
2022-12-18T09:33:36.780Z,76.34
2022-12-18T09:36:07.654Z,74.98
2022-12-18T09:38:37.179Z,75.70
2022-12-18T09:41:08.065Z,77.67
2022-12-18T09:43:41.587Z,76.78
2022-12-18T09:46:14.063Z,79.78
2022-12-18T09:48:45.192Z,77.68
2022-12-18T09:51:16.957Z,77.55
2022-12-18T09:53:53.857Z,83.95
2022-12-18T09:56:23.924Z,90.30
2022-12-18T09:58:58.056Z,90.19
2022-12-18T10:01:32.015Z,80.54
2022-12-18T10:04:10.856Z,88.11
2022-12-18T10:06:43.457Z,88.19
2022-12-18T10:09:20.997Z,92.75
2022-12-18T10:11:56.028Z,81.89
2022-12-18T10:14:30.734Z,78.87
2022-12-18T10:17:05.565Z,77.19
2022-12-18T10:19:49.922Z,72.79
2022-12-18T10:22:34.544Z,71.12
2022-12-18T10:25:08.858Z,72.41
2022-12-18T10:27:36.602Z,72.13
2022-12-18T10:30:14.746Z,72.50
2022-12-18T10:32:42.743Z,75.21
2022-12-18T10:35:19.929Z,74.51
2022-12-18T10:38:04.959Z,74.13
2022-12-18T10:40:34.135Z,74.50
2022-12-18T10:43:14.568Z,77.15
2022-12-18T10:45:42.401Z,78.10
2022-12-18T10:48:20.996Z,77.77
2022-12-18T10:53:39.807Z,79.01
2022-12-18T10:56:08.988Z,77.22
2022-12-18T10:58:38.538Z,77.59
2022-12-18T11:01:10.174Z,78.01
2022-12-18T11:03:39.799Z,75.83
2022-12-18T11:06:10.271Z,76.69
2022-12-18T11:08:38.500Z,77.08
2022-12-18T11:11:19.832Z,76.00
2022-12-18T11:13:59.509Z,76.46
2022-12-18T11:16:27.856Z,76.63
2022-12-18T11:18:55.699Z,77.44
2022-12-18T11:21:23.222Z,76.48
2022-12-18T11:23:53.366Z,77.69
2022-12-18T11:26:23.139Z,77.06
2022-12-18T11:28:53.318Z,82.21
2022-12-18T11:31:26.569Z,78.96
2022-12-18T11:34:35.021Z,77.64
2022-12-18T11:36:54.295Z,80.36
2022-12-18T11:39:25.898Z,79.93
2022-12-18T11:42:12.382Z,81.03
2022-12-18T11:44:50.102Z,81.99
2022-12-18T11:47:27.235Z,83.36
2022-12-18T11:49:57.367Z,83.17
2022-12-18T11:52:28.646Z,82.30
2022-12-18T11:55:00.432Z,81.20
2022-12-18T11:57:37.462Z,82.21
2022-12-18T12:00:13.181Z,80.80
2022-12-18T12:02:57.309Z,78.88
2022-12-18T12:05:39.347Z,81.73
2022-12-18T12:08:15.278Z,80.59
2022-12-18T12:10:55.973Z,81.29
2022-12-18T12:13:39.839Z,79.64
2022-12-18T12:16:17.273Z,78.07
2022-12-18T12:18:58.680Z,82.03
2022-12-18T12:21:34.697Z,78.79
2022-12-18T12:24:12.530Z,79.86
2022-12-18T12:26:47.623Z,80.03
2022-12-18T12:29:34.621Z,79.81
2022-12-18T12:32:13.618Z,84.72
2022-12-18T12:34:59.190Z,84.13
2022-12-18T12:37:41.013Z,83.55
2022-12-18T12:40:40.937Z,82.92
2022-12-18T12:43:16.346Z,82.14
2022-12-18T12:45:51.277Z,83.09
2022-12-18T12:48:27.564Z,83.70
2022-12-18T12:50:56.986Z,81.08
2022-12-18T12:53:30.800Z,79.45
2022-12-18T12:55:59.421Z,79.53
2022-12-18T12:58:35.824Z,80.84
2022-12-18T13:01:18.485Z,84.03
2022-12-18T13:03:59.272Z,86.37
2022-12-18T13:06:44.399Z,86.16
2022-12-18T13:09:12.398Z,83.10
2022-12-18T13:12:14.162Z,85.90
2022-12-18T13:14:42.884Z,86.31
2022-12-18T13:17:31.995Z,82.77
2022-12-18T13:20:15.445Z,81.88
2022-12-18T13:22:47.581Z,79.52
2022-12-18T13:25:34.062Z,80.17
2022-12-18T13:28:13.659Z,78.74
2022-12-18T13:30:50.805Z,79.30
2022-12-18T13:34:25.809Z,80.17
2022-12-18T13:36:56.096Z,82.25
2022-12-18T13:39:35.188Z,83.34
2022-12-18T13:43:09.625Z,85.02
2022-12-18T13:45:44.706Z,86.31
2022-12-18T13:48:18.922Z,83.51
2022-12-18T13:50:59.401Z,81.03
2022-12-18T13:53:30.339Z,81.24
2022-12-18T13:55:59.227Z,79.14
2022-12-18T13:58:27.462Z,77.83
2022-12-18T14:00:54.966Z,77.89
2022-12-18T14:03:27.106Z,77.65
2022-12-18T14:06:00.737Z,76.98
2022-12-18T14:08:34.671Z,77.06
2022-12-18T14:11:03.387Z,76.46
2022-12-18T14:13:34.971Z,78.01
2022-12-18T14:16:05.070Z,78.84
2022-12-18T14:18:41.045Z,80.43
2022-12-18T14:21:20.351Z,78.87
2022-12-18T14:23:47.961Z,78.57
2022-12-18T14:26:24.779Z,81.97
2022-12-18T14:28:52.402Z,80.18
2022-12-18T14:31:21.605Z,81.33
2022-12-18T14:33:49.308Z,83.32
2022-12-18T14:36:21.304Z,81.95
2022-12-18T14:38:51.245Z,80.89
2022-12-18T14:41:20.523Z,79.48
2022-12-18T14:43:49.796Z,80.67
2022-12-18T14:46:34.230Z,80.54
2022-12-18T14:49:03.736Z,79.93
2022-12-18T14:51:35.109Z,79.36
2022-12-18T14:54:04.880Z,78.75
2022-12-18T14:56:34.036Z,80.87
2022-12-18T14:59:04.347Z,80.16
2022-12-18T15:01:35.038Z,78.38
2022-12-18T15:04:04.376Z,79.54
2022-12-18T15:06:36.279Z,79.05
2022-12-18T15:09:07.433Z,79.29
2022-12-18T15:11:47.434Z,77.68
2022-12-18T15:14:26.244Z,83.17
2022-12-18T15:16:55.428Z,82.97
2022-12-18T15:19:24.412Z,79.61
2022-12-18T15:21:53.285Z,82.29
2022-12-18T15:24:24.506Z,84.64
2022-12-18T15:26:52.068Z,81.42
2022-12-18T15:29:26.274Z,80.73
2022-12-18T15:32:00.927Z,78.87
2022-12-18T15:34:29.435Z,77.54
2022-12-18T15:36:58.345Z,77.87
2022-12-18T15:39:25.836Z,77.51
2022-12-18T15:42:10.948Z,77.43
2022-12-18T15:44:38.891Z,84.66
2022-12-18T15:47:12.243Z,81.42
2022-12-18T15:49:40.160Z,79.30
2022-12-18T15:52:15.122Z,77.30
2022-12-18T15:55:00.258Z,78.34
2022-12-18T15:57:27.866Z,78.97
2022-12-18T15:59:58.848Z,81.40
2022-12-18T16:02:27.012Z,81.37
2022-12-18T16:04:55.007Z,80.83
2022-12-18T16:07:25.429Z,83.76
2022-12-18T16:09:53.660Z,83.03
2022-12-18T16:12:23.892Z,80.69
2022-12-18T16:14:52.233Z,78.15
2022-12-18T16:17:20.227Z,78.18
2022-12-18T16:19:47.706Z,77.93
2022-12-18T16:22:21.908Z,78.86
2022-12-18T16:24:51.563Z,80.21
2022-12-18T16:27:19.196Z,77.84
2022-12-18T16:29:46.840Z,76.62
2022-12-18T16:32:16.396Z,81.22
2022-12-18T16:34:45.810Z,79.54
2022-12-18T16:37:15.613Z,79.96
2022-12-18T16:39:43.631Z,78.59
2022-12-18T16:42:17.280Z,79.21
2022-12-18T16:44:45.817Z,77.80
2022-12-18T16:47:15.161Z,76.49
2022-12-18T16:49:43.027Z,76.07
2022-12-18T16:52:10.507Z,78.20
2022-12-18T16:54:38.098Z,78.93
2022-12-18T16:57:06.013Z,77.23
2022-12-18T16:59:38.079Z,79.58
2022-12-18T17:02:15.569Z,76.71
2022-12-18T17:04:45.101Z,78.15
2022-12-18T17:07:13.168Z,77.24
2022-12-18T17:09:41.247Z,78.77
2022-12-18T17:12:09.005Z,78.91
2022-12-18T17:14:38.061Z,80.07
2022-12-18T17:17:22.610Z,77.89
2022-12-18T17:19:51.002Z,80.54
2022-12-18T17:22:18.476Z,79.34
2022-12-18T17:24:47.033Z,79.80
2022-12-18T17:27:14.507Z,80.17
2022-12-18T17:29:47.990Z,78.59
2022-12-18T17:32:16.534Z,79.11
2022-12-18T17:34:44.047Z,76.87
2022-12-18T17:37:11.623Z,78.71
2022-12-18T17:39:39.343Z,81.57
2022-12-18T17:42:06.906Z,82.92
2022-12-18T17:44:35.998Z,80.25
2022-12-18T17:47:06.044Z,80.27
2022-12-18T17:49:33.563Z,81.91
2022-12-18T17:52:01.039Z,81.72
2022-12-18T17:54:28.492Z,82.41
2022-12-18T17:56:55.982Z,81.43
2022-12-18T17:59:23.741Z,81.25
2022-12-18T18:01:51.278Z,79.52
2022-12-18T18:04:20.888Z,78.12
2022-12-18T18:06:48.446Z,79.20
2022-12-18T18:09:17.106Z,78.36
2022-12-18T18:12:02.529Z,79.15
2022-12-18T18:14:30.136Z,80.85
2022-12-18T18:17:01.118Z,81.65
2022-12-18T18:19:34.655Z,83.07
2022-12-18T18:22:03.123Z,81.04
2022-12-18T18:24:31.381Z,81.35
2022-12-18T18:26:59.983Z,84.58
2022-12-18T18:29:30.223Z,85.05
2022-12-18T18:31:58.574Z,84.09
2022-12-18T18:34:27.694Z,82.75
2022-12-18T18:36:59.213Z,81.01
2022-12-18T18:39:26.773Z,80.38
2022-12-18T18:41:54.695Z,80.05
2022-12-18T18:44:25.752Z,79.52
2022-12-18T18:46:55.144Z,80.95
2022-12-18T18:49:24.164Z,79.57
2022-12-18T18:51:52.006Z,78.43
2022-12-18T18:54:21.295Z,81.01
2022-12-18T18:59:38.274Z,81.00
2022-12-18T19:02:06.018Z,80.59
2022-12-18T19:04:34.556Z,79.68
2022-12-18T19:07:02.099Z,80.37
2022-12-18T19:09:31.313Z,80.95
2022-12-18T19:12:16.643Z,82.26
2022-12-18T19:14:44.642Z,82.19
2022-12-18T19:17:12.075Z,83.46
2022-12-18T19:19:40.063Z,80.48
2022-12-18T19:22:07.847Z,80.65
2022-12-18T19:24:36.648Z,80.13
2022-12-18T19:27:04.283Z,80.33
2022-12-18T19:29:31.880Z,78.93
2022-12-18T19:31:59.333Z,79.44
2022-12-18T19:34:27.563Z,79.46
2022-12-18T19:36:59.942Z,79.58
2022-12-18T19:39:27.846Z,80.07
2022-12-18T19:41:56.658Z,80.36
2022-12-18T19:44:24.111Z,78.41
2022-12-18T19:46:52.418Z,78.77
2022-12-18T19:49:22.907Z,78.84
2022-12-18T19:51:50.734Z,79.67
2022-12-18T19:54:18.575Z,81.67
2022-12-18T19:56:46.695Z,79.60
2022-12-18T19:59:15.721Z,78.15
2022-12-18T20:01:43.531Z,77.08
2022-12-18T20:04:11.183Z,79.86
2022-12-18T20:06:48.115Z,78.94
2022-12-18T20:09:16.134Z,80.13
2022-12-18T20:11:44.075Z,79.88
2022-12-18T20:14:12.536Z,76.88
2022-12-18T20:16:42.099Z,78.14
2022-12-18T20:19:11.722Z,78.49
2022-12-18T20:21:39.762Z,78.54
2022-12-18T20:24:08.667Z,76.71
2022-12-18T20:26:36.258Z,81.33
2022-12-18T20:29:03.732Z,79.04
2022-12-18T20:31:31.345Z,77.71
2022-12-18T20:34:01.715Z,76.78
2022-12-18T20:36:31.785Z,75.64
2022-12-18T20:39:01.664Z,75.21
2022-12-18T20:41:37.512Z,78.73
2022-12-18T20:44:06.693Z,78.81
2022-12-18T20:46:48.095Z,77.20
2022-12-18T20:49:16.869Z,81.34
2022-12-18T20:51:44.391Z,80.61
2022-12-18T20:54:12.146Z,79.79
2022-12-18T20:56:39.798Z,80.31
2022-12-18T20:59:07.263Z,79.18
2022-12-18T21:01:34.846Z,79.35
2022-12-18T21:04:09.644Z,77.10
2022-12-18T21:06:38.850Z,81.16
2022-12-18T21:09:06.339Z,78.04
2022-12-18T21:11:52.455Z,76.97
2022-12-18T21:14:22.244Z,79.05
2022-12-18T21:16:50.188Z,80.19
2022-12-18T21:19:20.064Z,79.23
2022-12-18T21:21:49.100Z,80.75
2022-12-18T21:24:17.330Z,81.17
2022-12-18T21:26:46.437Z,78.04
2022-12-18T21:29:15.966Z,78.83
2022-12-18T21:31:45.345Z,77.82
2022-12-18T21:34:16.791Z,76.52
2022-12-18T21:36:44.247Z,78.84
2022-12-18T21:39:15.634Z,77.10
2022-12-18T21:42:01.078Z,82.44
2022-12-18T21:44:28.814Z,83.70
2022-12-18T21:47:03.549Z,81.29
2022-12-18T21:49:37.005Z,81.74
2022-12-18T21:52:04.778Z,78.89
2022-12-18T21:54:34.590Z,75.98
2022-12-18T21:57:03.515Z,76.62
2022-12-18T21:59:32.795Z,78.11
2022-12-18T22:02:02.980Z,80.20
2022-12-18T22:04:30.551Z,77.36
2022-12-18T22:07:04.534Z,75.94
2022-12-18T22:09:34.168Z,78.21
2022-12-18T22:12:02.019Z,77.77
2022-12-18T22:14:29.514Z,75.92
2022-12-18T22:16:57.395Z,78.46
2022-12-18T22:19:25.867Z,77.46
2022-12-18T22:21:53.806Z,78.31
2022-12-18T22:24:23.197Z,78.08
2022-12-18T22:26:54.963Z,79.44
2022-12-18T22:29:44.966Z,82.40
2022-12-18T22:32:16.376Z,80.87
2022-12-18T22:34:45.057Z,79.87
2022-12-18T22:37:13.005Z,76.55
2022-12-18T22:39:40.459Z,88.32
2022-12-18T22:42:09.875Z,77.58
2022-12-18T22:44:37.297Z,84.63
2022-12-18T22:47:06.129Z,84.25
2022-12-18T22:49:35.876Z,76.91
2022-12-18T22:52:03.805Z,76.30
2022-12-18T22:54:31.500Z,75.64
2022-12-18T22:56:58.952Z,70.87
2022-12-18T22:59:27.792Z,70.55
2022-12-18T23:01:59.071Z,65.00
2022-12-18T23:04:30.159Z,68.00
2022-12-18T23:07:04.831Z,69.17
2022-12-18T23:09:32.412Z,72.42
2022-12-18T23:11:59.886Z,72.32
2022-12-18T23:14:29.073Z,73.93
2022-12-18T23:16:56.663Z,76.21
2022-12-18T23:19:24.720Z,75.17
2022-12-18T23:21:52.342Z,74.42
2022-12-18T23:24:22.221Z,72.81
2022-12-18T23:26:49.684Z,77.55
2022-12-18T23:29:17.188Z,78.24
2022-12-18T23:31:46.023Z,76.06
2022-12-18T23:34:14.611Z,77.92
2022-12-18T23:36:46.212Z,77.66
2022-12-18T23:39:20.472Z,78.97
2022-12-18T23:41:57.662Z,74.58
2022-12-18T23:44:25.224Z,75.31
2022-12-18T23:46:54.032Z,74.73
2022-12-18T23:49:21.580Z,76.03
2022-12-18T23:51:49.451Z,76.22
2022-12-18T23:54:16.935Z,75.15
2022-12-18T23:56:44.423Z,75.62
2022-12-18T23:59:11.846Z,74.88
